createdAt,value
2017-08-19T00:01:37.787Z,16.90
2017-08-19T00:04:05.260Z,17.00
2017-08-19T00:06:32.739Z,17.00
2017-08-19T00:09:00.221Z,16.90
2017-08-19T00:11:27.693Z,17.00
2017-08-19T00:13:55.164Z,17.10
2017-08-19T00:16:22.628Z,17.10
2017-08-19T00:18:50.106Z,17.10
2017-08-19T00:21:17.909Z,17.20
2017-08-19T00:23:45.378Z,17.20
2017-08-19T00:26:12.853Z,17.20
2017-08-19T00:28:40.332Z,17.20
2017-08-19T00:31:07.808Z,17.30
2017-08-19T00:33:35.291Z,17.40
2017-08-19T00:36:03.745Z,17.40
2017-08-19T00:38:31.224Z,17.40
2017-08-19T00:40:58.688Z,17.40
2017-08-19T00:43:26.175Z,17.50
2017-08-19T00:45:53.647Z,17.50
2017-08-19T00:48:21.140Z,17.40
2017-08-19T00:50:48.602Z,17.40
2017-08-19T00:53:16.063Z,17.40
2017-08-19T00:55:43.545Z,17.40
2017-08-19T00:58:11.016Z,17.50
2017-08-19T01:00:38.491Z,17.50
2017-08-19T01:03:05.972Z,17.50
2017-08-19T01:05:33.451Z,17.40
2017-08-19T01:08:00.940Z,17.40
2017-08-19T01:10:28.411Z,17.30
2017-08-19T01:12:55.871Z,17.10
2017-08-19T01:15:23.349Z,16.90
2017-08-19T01:17:50.808Z,16.70
2017-08-19T01:20:18.286Z,16.50
2017-08-19T01:22:45.762Z,16.40
2017-08-19T01:25:25.011Z,16.40
2017-08-19T01:27:52.472Z,16.30
2017-08-19T01:30:19.944Z,16.20
2017-08-19T01:32:47.404Z,16.10
2017-08-19T01:35:14.892Z,16.00
2017-08-19T01:37:42.363Z,16.00
2017-08-19T01:40:09.844Z,15.90
2017-08-19T01:42:37.314Z,15.90
2017-08-19T01:45:04.776Z,15.80
2017-08-19T01:47:32.251Z,15.80
2017-08-19T01:49:59.715Z,15.70
2017-08-19T01:52:27.191Z,15.60
2017-08-19T01:54:54.653Z,15.60
2017-08-19T01:57:22.127Z,15.60
2017-08-19T01:59:49.607Z,15.60
2017-08-19T02:02:17.076Z,15.60
2017-08-19T02:04:44.539Z,15.50
2017-08-19T02:07:12.017Z,15.50
2017-08-19T02:09:39.478Z,15.50
2017-08-19T02:12:06.947Z,15.50
2017-08-19T02:14:34.416Z,15.50
2017-08-19T02:17:01.891Z,15.40
2017-08-19T02:19:29.352Z,15.40
2017-08-19T02:21:56.819Z,15.50
2017-08-19T02:24:24.288Z,15.60
2017-08-19T02:26:51.760Z,15.70
2017-08-19T02:29:19.233Z,15.70
2017-08-19T02:31:46.698Z,15.80
2017-08-19T02:34:14.168Z,15.80
2017-08-19T02:36:41.633Z,15.80
2017-08-19T02:39:09.102Z,15.80
2017-08-19T02:41:36.567Z,15.70
2017-08-19T02:44:04.039Z,15.70
2017-08-19T02:46:31.529Z,15.60
2017-08-19T02:49:12.433Z,15.40
2017-08-19T02:51:39.900Z,15.40
2017-08-19T02:54:07.385Z,15.30
2017-08-19T02:56:35.544Z,15.30
2017-08-19T02:59:03.023Z,15.40
2017-08-19T03:01:30.491Z,15.40
2017-08-19T03:03:58.023Z,15.30
2017-08-19T03:06:25.483Z,15.20
2017-08-19T03:08:52.964Z,15.00
2017-08-19T03:11:20.429Z,14.90
2017-08-19T03:13:47.907Z,14.80
2017-08-19T03:16:15.380Z,14.80
2017-08-19T03:18:42.855Z,14.80
2017-08-19T03:21:10.316Z,14.70
2017-08-19T03:23:37.798Z,14.70
2017-08-19T03:26:05.261Z,14.70
2017-08-19T03:28:32.741Z,14.70
2017-08-19T03:31:00.200Z,14.60
2017-08-19T03:33:27.686Z,14.60
2017-08-19T03:35:55.162Z,14.60
2017-08-19T03:38:22.630Z,14.50
2017-08-19T03:40:50.104Z,14.50
2017-08-19T03:43:17.569Z,14.50
2017-08-19T03:45:45.055Z,14.50
2017-08-19T03:48:12.515Z,14.50
2017-08-19T03:50:39.992Z,14.50
2017-08-19T03:53:07.459Z,14.40
2017-08-19T03:55:34.926Z,14.40
2017-08-19T03:58:02.391Z,14.40
2017-08-19T04:00:29.872Z,14.40
2017-08-19T04:02:57.328Z,14.40
2017-08-19T04:05:24.802Z,14.40
2017-08-19T04:07:52.267Z,14.40
2017-08-19T04:10:19.741Z,14.40
2017-08-19T04:12:47.216Z,14.40
2017-08-19T04:15:14.712Z,14.50
2017-08-19T04:17:42.170Z,14.50
2017-08-19T04:20:09.643Z,14.50
2017-08-19T04:22:37.099Z,14.70
2017-08-19T04:25:04.582Z,14.60
2017-08-19T04:27:32.043Z,14.60
2017-08-19T04:29:59.503Z,14.50
2017-08-19T04:32:26.980Z,14.50
2017-08-19T04:34:54.445Z,14.50
2017-08-19T04:37:21.920Z,14.60
2017-08-19T04:39:49.384Z,14.60
2017-08-19T04:42:16.847Z,14.50
2017-08-19T04:44:44.315Z,14.50
2017-08-19T04:47:11.791Z,14.50
2017-08-19T04:49:39.248Z,14.50
2017-08-19T04:52:06.736Z,14.60
2017-08-19T04:54:34.214Z,14.60
2017-08-19T04:57:01.690Z,14.60
2017-08-19T04:59:29.156Z,14.60
2017-08-19T05:01:56.628Z,14.60
2017-08-19T05:04:24.090Z,14.50
2017-08-19T05:06:51.559Z,14.60
2017-08-19T05:09:19.044Z,14.60
2017-08-19T05:11:46.528Z,14.60
2017-08-19T05:14:13.995Z,14.60
2017-08-19T05:16:41.459Z,14.60
2017-08-19T05:19:08.938Z,14.50
2017-08-19T05:21:36.402Z,14.40
2017-08-19T05:24:03.870Z,14.40
2017-08-19T05:26:31.335Z,14.40
2017-08-19T05:28:58.814Z,14.50
2017-08-19T05:31:26.282Z,14.60
2017-08-19T05:33:53.752Z,14.50
2017-08-19T05:36:21.218Z,14.50
2017-08-19T05:38:48.687Z,14.60
2017-08-19T05:41:16.153Z,14.60
2017-08-19T05:43:43.622Z,14.50
2017-08-19T05:46:11.085Z,14.50
2017-08-19T05:48:38.549Z,14.50
2017-08-19T05:51:06.012Z,14.60
2017-08-19T05:53:33.489Z,14.60
2017-08-19T05:56:00.953Z,14.60
2017-08-19T05:58:28.419Z,14.60
2017-08-19T06:00:55.883Z,14.70
2017-08-19T06:03:23.368Z,14.70
2017-08-19T06:05:50.828Z,14.70
2017-08-19T06:08:18.296Z,14.80
2017-08-19T06:10:45.763Z,14.80
2017-08-19T06:13:13.223Z,14.90
2017-08-19T06:15:40.696Z,14.80
2017-08-19T06:18:08.159Z,14.80
2017-08-19T06:20:35.636Z,14.80
2017-08-19T06:23:03.100Z,14.80
2017-08-19T06:25:30.577Z,14.80
2017-08-19T06:27:58.044Z,14.90
2017-08-19T06:30:25.523Z,14.80
2017-08-19T06:32:52.984Z,14.90
2017-08-19T06:35:20.448Z,14.90
2017-08-19T06:37:47.923Z,14.90
2017-08-19T06:40:15.397Z,15.00
2017-08-19T06:42:42.862Z,15.00
2017-08-19T06:45:10.348Z,15.10
2017-08-19T06:47:37.822Z,15.20
2017-08-19T06:50:05.293Z,15.30
2017-08-19T06:52:32.743Z,15.40
2017-08-19T06:55:00.219Z,15.50
2017-08-19T06:57:27.676Z,15.50
2017-08-19T06:59:55.147Z,15.60
2017-08-19T07:02:22.612Z,15.70
2017-08-19T07:04:50.096Z,15.70
2017-08-19T07:07:17.548Z,15.70
2017-08-19T07:09:45.010Z,15.70
2017-08-19T07:12:12.488Z,15.80
2017-08-19T07:14:39.953Z,15.90
2017-08-19T07:17:07.426Z,15.90
2017-08-19T07:19:34.894Z,16.00
2017-08-19T07:22:02.360Z,16.10
2017-08-19T07:24:29.820Z,16.10
2017-08-19T07:26:57.318Z,16.20
2017-08-19T07:29:24.788Z,16.20
2017-08-19T07:31:52.265Z,16.30
2017-08-19T07:34:19.720Z,16.30
2017-08-19T07:36:47.194Z,16.40
2017-08-19T07:39:14.656Z,16.50
2017-08-19T07:41:42.131Z,16.50
2017-08-19T07:44:09.594Z,16.70
2017-08-19T07:46:37.077Z,16.90
2017-08-19T07:49:04.558Z,17.00
2017-08-19T07:51:32.032Z,17.00
2017-08-19T07:53:59.499Z,17.10
2017-08-19T07:56:26.959Z,17.20
2017-08-19T07:58:54.431Z,17.20
2017-08-19T08:01:21.894Z,17.20
2017-08-19T08:03:49.363Z,17.20
2017-08-19T08:06:16.835Z,17.20
2017-08-19T08:08:44.515Z,17.20
2017-08-19T08:11:11.972Z,17.30
2017-08-19T08:13:39.435Z,17.20
2017-08-19T08:16:06.901Z,17.20
2017-08-19T08:18:34.382Z,17.30
2017-08-19T08:21:01.847Z,17.50
2017-08-19T08:23:29.312Z,17.50
2017-08-19T08:25:56.781Z,17.40
2017-08-19T08:28:24.251Z,17.50
2017-08-19T08:30:51.710Z,17.50
2017-08-19T08:33:19.190Z,17.70
2017-08-19T08:35:46.642Z,17.70
2017-08-19T08:38:14.134Z,17.70
2017-08-19T08:40:41.589Z,17.90
2017-08-19T08:43:09.049Z,17.90
2017-08-19T08:45:36.531Z,17.90
2017-08-19T08:48:03.985Z,18.10
2017-08-19T08:50:31.464Z,18.00
2017-08-19T08:52:58.928Z,18.00
2017-08-19T08:55:26.396Z,17.90
2017-08-19T08:57:53.850Z,18.10
2017-08-19T09:00:21.337Z,18.30
2017-08-19T09:02:48.797Z,18.30
2017-08-19T09:05:16.271Z,18.40
2017-08-19T09:07:43.739Z,18.40
2017-08-19T09:10:11.213Z,18.60
2017-08-19T09:12:38.685Z,18.70
2017-08-19T09:15:06.148Z,18.80
2017-08-19T09:17:33.603Z,18.90
2017-08-19T09:20:01.070Z,18.90
2017-08-19T09:22:28.539Z,18.90
2017-08-19T09:24:56.015Z,18.90
2017-08-19T09:27:23.588Z,18.90
2017-08-19T09:29:51.085Z,19.00
2017-08-19T09:32:18.568Z,18.90
2017-08-19T09:34:46.040Z,18.90
2017-08-19T09:37:13.536Z,19.00
2017-08-19T09:39:40.995Z,19.10
2017-08-19T09:42:08.472Z,19.20
2017-08-19T09:44:35.953Z,19.30
2017-08-19T09:47:03.424Z,19.60
2017-08-19T09:49:30.883Z,19.60
2017-08-19T09:51:58.352Z,19.70
2017-08-19T09:54:25.806Z,19.80
2017-08-19T09:56:53.271Z,19.90
2017-08-19T09:59:20.737Z,20.20
2017-08-19T10:01:48.214Z,20.20
2017-08-19T10:04:15.674Z,20.10
2017-08-19T10:06:43.139Z,20.00
2017-08-19T10:09:22.331Z,20.10
2017-08-19T10:11:49.812Z,20.20
2017-08-19T10:14:17.267Z,20.20
2017-08-19T10:16:44.732Z,20.50
2017-08-19T10:19:12.193Z,20.50
2017-08-19T10:21:39.658Z,20.60
2017-08-19T10:24:07.119Z,20.40
2017-08-19T10:26:34.583Z,20.60
2017-08-19T10:29:02.069Z,20.40
2017-08-19T10:31:29.555Z,20.10
2017-08-19T10:33:57.039Z,20.10
2017-08-19T10:36:24.495Z,20.00
2017-08-19T10:38:51.967Z,20.20
2017-08-19T10:41:19.431Z,20.30
2017-08-19T10:43:46.901Z,20.60
2017-08-19T10:46:14.363Z,20.60
2017-08-19T10:48:41.837Z,20.50
2017-08-19T10:51:09.295Z,20.20
2017-08-19T10:53:36.764Z,20.10
2017-08-19T10:56:04.228Z,20.20
2017-08-19T10:58:31.707Z,20.20
2017-08-19T11:00:59.155Z,20.20
2017-08-19T11:03:26.621Z,20.10
2017-08-19T11:05:54.082Z,20.10
2017-08-19T11:08:21.590Z,19.90
2017-08-19T11:10:49.063Z,19.80
2017-08-19T11:13:16.535Z,19.70
2017-08-19T11:15:43.997Z,19.60
2017-08-19T11:18:11.460Z,19.40
2017-08-19T11:20:38.925Z,19.30
2017-08-19T11:23:06.392Z,19.20
2017-08-19T11:25:33.910Z,19.20
2017-08-19T11:28:01.383Z,19.30
2017-08-19T11:30:28.866Z,19.40
2017-08-19T11:32:56.335Z,19.60
2017-08-19T11:35:23.815Z,19.70
2017-08-19T11:37:51.268Z,20.00
2017-08-19T11:40:18.770Z,20.00
2017-08-19T11:42:46.211Z,20.00
2017-08-19T11:45:13.671Z,20.10
2017-08-19T11:47:41.128Z,20.30
2017-08-19T11:50:08.610Z,20.40
2017-08-19T11:52:36.078Z,20.40
2017-08-19T11:55:03.551Z,20.50
2017-08-19T12:00:23.897Z,20.60
2017-08-19T12:02:51.352Z,21.00
2017-08-19T12:05:18.823Z,21.20
2017-08-19T12:07:46.282Z,21.30
2017-08-19T12:10:13.773Z,21.30
2017-08-19T12:12:41.236Z,21.30
2017-08-19T12:15:08.697Z,21.40
2017-08-19T12:17:36.160Z,21.40
2017-08-19T12:20:03.619Z,21.30
2017-08-19T12:22:31.102Z,21.10
2017-08-19T12:24:58.555Z,20.80
2017-08-19T12:27:26.022Z,20.40
2017-08-19T12:29:53.490Z,20.30
2017-08-19T12:32:20.968Z,20.10
2017-08-19T12:34:48.436Z,20.10
2017-08-19T12:37:15.900Z,20.30
2017-08-19T12:39:43.359Z,20.30
2017-08-19T12:42:10.828Z,20.30
2017-08-19T12:44:38.306Z,20.10
2017-08-19T12:47:05.777Z,20.00
2017-08-19T12:49:33.240Z,19.90
2017-08-19T12:52:00.711Z,19.80
2017-08-19T12:54:28.180Z,19.80
2017-08-19T12:56:55.656Z,19.90
2017-08-19T12:59:23.123Z,19.90
2017-08-19T13:01:50.616Z,19.90
2017-08-19T13:04:18.082Z,20.00
2017-08-19T13:06:45.542Z,19.90
2017-08-19T13:09:13.011Z,19.90
2017-08-19T13:11:40.473Z,19.90
2017-08-19T13:14:07.946Z,19.90
2017-08-19T13:16:35.407Z,19.80
2017-08-19T13:19:02.875Z,19.50
2017-08-19T13:21:30.339Z,19.30
2017-08-19T13:23:57.807Z,19.20
2017-08-19T13:26:25.267Z,19.30
2017-08-19T13:28:52.744Z,19.30
2017-08-19T13:31:20.211Z,19.40
2017-08-19T13:33:47.676Z,19.40
2017-08-19T13:36:15.136Z,19.60
2017-08-19T13:38:42.619Z,19.70
2017-08-19T13:41:10.091Z,19.80
2017-08-19T13:43:37.566Z,20.10
2017-08-19T13:46:05.032Z,20.30
2017-08-19T13:48:32.508Z,20.50
2017-08-19T13:50:59.981Z,20.40
2017-08-19T13:53:27.447Z,20.40
2017-08-19T13:55:54.912Z,20.10
2017-08-19T13:58:22.387Z,20.00
2017-08-19T14:00:49.875Z,20.00
2017-08-19T14:03:17.343Z,20.00
2017-08-19T14:05:44.799Z,20.10
2017-08-19T14:08:12.279Z,20.00
2017-08-19T14:10:39.735Z,20.10
2017-08-19T14:13:07.196Z,20.00
2017-08-19T14:15:34.660Z,20.30
2017-08-19T14:18:02.157Z,20.60
2017-08-19T14:20:29.622Z,20.90
2017-08-19T14:22:57.080Z,21.00
2017-08-19T14:25:24.552Z,20.90
2017-08-19T14:27:52.016Z,20.80
2017-08-19T14:30:19.482Z,20.60
2017-08-19T14:32:46.952Z,20.60
2017-08-19T14:35:14.428Z,20.40
2017-08-19T14:37:41.895Z,20.50
2017-08-19T14:40:09.363Z,20.50
2017-08-19T14:42:36.822Z,20.30
2017-08-19T14:45:04.292Z,20.30
2017-08-19T14:47:31.754Z,20.50
2017-08-19T14:49:59.233Z,20.60
2017-08-19T14:52:26.695Z,20.70
2017-08-19T14:54:54.164Z,20.90
2017-08-19T14:57:21.631Z,21.20
2017-08-19T14:59:49.102Z,21.20
2017-08-19T15:02:16.576Z,20.90
2017-08-19T15:04:44.050Z,20.80
2017-08-19T15:07:11.510Z,20.90
2017-08-19T15:09:38.971Z,20.60
2017-08-19T15:12:06.444Z,20.30
2017-08-19T15:14:33.907Z,20.30
2017-08-19T15:17:01.380Z,20.20
2017-08-19T15:19:28.849Z,20.10
2017-08-19T15:21:56.315Z,20.30
2017-08-19T15:24:23.795Z,20.50
2017-08-19T15:26:51.258Z,20.70
2017-08-19T15:29:18.720Z,20.80
2017-08-19T15:31:46.204Z,20.80
2017-08-19T15:34:13.676Z,20.90
2017-08-19T15:36:41.152Z,20.90
2017-08-19T15:39:08.612Z,20.90
2017-08-19T15:41:36.083Z,21.10
2017-08-19T15:44:03.551Z,21.10
2017-08-19T15:46:31.051Z,21.10
2017-08-19T15:48:58.513Z,21.00
2017-08-19T15:51:25.975Z,21.00
2017-08-19T15:53:53.430Z,20.90
2017-08-19T15:56:20.904Z,20.90
2017-08-19T15:58:48.368Z,20.60
2017-08-19T16:01:15.835Z,20.40
2017-08-19T16:03:43.296Z,20.40
2017-08-19T16:06:10.779Z,20.30
2017-08-19T16:08:38.252Z,20.20
2017-08-19T16:11:05.715Z,20.30
2017-08-19T16:13:33.194Z,20.30
2017-08-19T16:16:00.659Z,20.20
2017-08-19T16:18:28.127Z,20.20
2017-08-19T16:20:55.584Z,20.20
2017-08-19T16:23:23.062Z,20.10
2017-08-19T16:25:50.525Z,20.00
2017-08-19T16:28:18.339Z,20.00
2017-08-19T16:30:45.800Z,20.10
2017-08-19T16:33:13.264Z,20.30
2017-08-19T16:35:40.778Z,20.30
2017-08-19T16:38:08.244Z,20.30
2017-08-19T16:40:35.720Z,20.20
2017-08-19T16:43:03.179Z,20.10
2017-08-19T16:45:30.648Z,20.00
2017-08-19T16:47:58.113Z,20.00
2017-08-19T16:50:25.576Z,19.90
2017-08-19T16:52:53.041Z,19.80
2017-08-19T16:55:20.511Z,20.00
2017-08-19T16:57:48.019Z,20.00
2017-08-19T17:00:15.488Z,19.80
2017-08-19T17:02:42.953Z,19.70
2017-08-19T17:05:10.415Z,19.60
2017-08-19T17:07:37.879Z,19.50
2017-08-19T17:10:05.360Z,19.40
2017-08-19T17:12:32.832Z,19.20
2017-08-19T17:15:00.320Z,19.20
2017-08-19T17:17:27.782Z,19.10
2017-08-19T17:19:55.247Z,19.00
2017-08-19T17:22:22.736Z,18.90
2017-08-19T17:24:50.213Z,18.80
2017-08-19T17:27:17.686Z,18.70
2017-08-19T17:29:45.144Z,18.70
2017-08-19T17:32:12.623Z,18.60
2017-08-19T17:34:40.087Z,18.50
2017-08-19T17:37:07.561Z,18.50
2017-08-19T17:39:35.030Z,18.50
2017-08-19T17:42:02.526Z,18.50
2017-08-19T17:44:29.992Z,18.60
2017-08-19T17:46:57.469Z,18.60
2017-08-19T17:49:24.922Z,18.50
2017-08-19T17:51:52.390Z,18.30
2017-08-19T17:54:19.859Z,18.00
2017-08-19T17:56:47.322Z,18.00
2017-08-19T17:59:14.788Z,18.00
2017-08-19T18:01:42.251Z,18.10
2017-08-19T18:04:09.728Z,18.00
2017-08-19T18:06:37.198Z,18.00
2017-08-19T18:09:04.659Z,18.00
2017-08-19T18:11:32.134Z,17.90
2017-08-19T18:13:59.583Z,17.70
2017-08-19T18:16:27.061Z,17.70
2017-08-19T18:18:54.536Z,17.70
2017-08-19T18:21:22.011Z,17.80
2017-08-19T18:23:49.476Z,17.80
2017-08-19T18:26:16.950Z,17.70
2017-08-19T18:28:44.403Z,17.70
2017-08-19T18:31:11.879Z,17.60
2017-08-19T18:33:39.345Z,17.50
2017-08-19T18:36:06.808Z,17.40
2017-08-19T18:38:34.282Z,17.40
2017-08-19T18:41:01.731Z,17.30
2017-08-19T18:43:29.201Z,17.30
2017-08-19T18:45:56.656Z,17.20
2017-08-19T18:48:24.127Z,17.20
2017-08-19T18:50:51.612Z,17.10
2017-08-19T18:53:19.080Z,17.00
2017-08-19T18:55:46.546Z,17.00
2017-08-19T18:58:14.025Z,16.90
2017-08-19T19:00:41.479Z,16.80
2017-08-19T19:03:08.954Z,16.70
2017-08-19T19:05:36.456Z,16.70
2017-08-19T19:08:03.927Z,16.60
2017-08-19T19:10:31.394Z,16.50
2017-08-19T19:12:58.871Z,16.30
2017-08-19T19:15:26.330Z,16.10
2017-08-19T19:17:53.800Z,16.00
2017-08-19T19:20:21.266Z,16.00
2017-08-19T19:22:48.739Z,15.90
2017-08-19T19:25:16.207Z,15.90
2017-08-19T19:27:43.684Z,15.80
2017-08-19T19:30:11.143Z,15.70
2017-08-19T19:32:38.619Z,15.70
2017-08-19T19:35:06.083Z,15.60
2017-08-19T19:37:33.551Z,15.60
2017-08-19T19:40:03.082Z,15.50
2017-08-19T19:42:30.558Z,15.40
2017-08-19T19:44:58.338Z,15.40
2017-08-19T19:47:25.826Z,15.30
2017-08-19T19:49:53.275Z,15.30
2017-08-19T19:52:20.752Z,15.20
2017-08-19T19:54:48.222Z,15.20
2017-08-19T19:57:15.689Z,15.20
2017-08-19T19:59:43.161Z,15.30
2017-08-19T20:02:10.611Z,15.30
2017-08-19T20:04:38.084Z,15.30
2017-08-19T20:07:05.549Z,15.20
2017-08-19T20:09:33.008Z,15.20
2017-08-19T20:12:00.480Z,15.10
2017-08-19T20:14:27.949Z,15.10
2017-08-19T20:16:55.408Z,15.20
2017-08-19T20:19:22.873Z,15.10
2017-08-19T20:21:50.335Z,15.20
2017-08-19T20:24:17.820Z,15.20
2017-08-19T20:26:45.292Z,15.30
2017-08-19T20:29:12.769Z,15.20
2017-08-19T20:31:40.232Z,15.30
2017-08-19T20:34:07.708Z,15.30
2017-08-19T20:36:35.169Z,15.30
2017-08-19T20:39:02.638Z,15.40
2017-08-19T20:41:30.087Z,15.30
2017-08-19T20:43:57.573Z,15.40
2017-08-19T20:46:25.027Z,15.40
2017-08-19T20:48:52.509Z,15.40
2017-08-19T20:51:19.991Z,15.40
2017-08-19T20:53:47.476Z,15.30
2017-08-19T20:56:14.934Z,15.30
2017-08-19T20:58:42.401Z,15.20
2017-08-19T21:01:09.877Z,15.20
2017-08-19T21:03:37.339Z,15.20
2017-08-19T21:06:04.812Z,15.30
2017-08-19T21:08:32.288Z,15.30
2017-08-19T21:10:59.767Z,15.30
2017-08-19T21:13:27.235Z,15.30
2017-08-19T21:15:54.712Z,15.30
2017-08-19T21:18:22.183Z,15.40
2017-08-19T21:20:49.652Z,15.30
2017-08-19T21:23:17.111Z,15.20
2017-08-19T21:25:44.587Z,15.10
2017-08-19T21:28:12.047Z,14.90
2017-08-19T21:30:39.522Z,14.80
2017-08-19T21:33:06.979Z,14.80
2017-08-19T21:35:34.454Z,14.80
2017-08-19T21:38:01.920Z,14.80
2017-08-19T21:40:29.387Z,14.70
2017-08-19T21:42:56.864Z,14.70
2017-08-19T21:45:24.324Z,14.60
2017-08-19T21:47:51.795Z,14.50
2017-08-19T21:50:19.251Z,14.50
2017-08-19T21:52:46.724Z,14.50
2017-08-19T21:55:14.183Z,14.60
2017-08-19T21:57:41.650Z,14.60
2017-08-19T22:00:09.103Z,14.50
2017-08-19T22:02:37.380Z,14.40
2017-08-19T22:05:04.846Z,14.40
2017-08-19T22:07:32.316Z,14.40
2017-08-19T22:09:59.784Z,14.50
2017-08-19T22:12:27.432Z,14.50
2017-08-19T22:14:54.891Z,14.60
2017-08-19T22:17:22.369Z,14.70
2017-08-19T22:19:49.879Z,14.70
2017-08-19T22:22:17.333Z,14.80
2017-08-19T22:24:44.803Z,14.70
2017-08-19T22:27:12.258Z,14.70
2017-08-19T22:29:39.724Z,14.70
2017-08-19T22:32:07.203Z,14.70
2017-08-19T22:34:34.675Z,14.70
2017-08-19T22:37:02.158Z,14.60
2017-08-19T22:39:29.631Z,14.60
2017-08-19T22:41:57.096Z,14.60
2017-08-19T22:44:24.563Z,14.60
2017-08-19T22:46:52.030Z,14.50
2017-08-19T22:49:19.500Z,14.50
2017-08-19T22:51:46.967Z,14.50
2017-08-19T22:54:14.435Z,14.30
2017-08-19T22:56:41.895Z,14.20
2017-08-19T22:59:09.363Z,14.30
2017-08-19T23:01:37.352Z,14.30
2017-08-19T23:04:04.820Z,14.30
2017-08-19T23:06:32.276Z,14.20
2017-08-19T23:08:59.748Z,14.10
2017-08-19T23:11:27.215Z,14.10
2017-08-19T23:13:54.682Z,14.10
2017-08-19T23:16:22.160Z,14.00
2017-08-19T23:18:49.623Z,14.10
2017-08-19T23:21:17.097Z,14.10
2017-08-19T23:23:44.559Z,14.10
2017-08-19T23:26:12.032Z,14.10
2017-08-19T23:28:39.487Z,14.10
2017-08-19T23:31:06.958Z,14.10
2017-08-19T23:33:34.419Z,14.10
2017-08-19T23:36:01.919Z,14.10
2017-08-19T23:38:29.388Z,14.00
2017-08-19T23:40:56.856Z,14.00
2017-08-19T23:43:24.327Z,13.90
2017-08-19T23:45:51.795Z,13.80
2017-08-19T23:48:19.247Z,13.80
2017-08-19T23:50:46.720Z,13.80
2017-08-19T23:53:14.184Z,13.80
2017-08-19T23:55:41.652Z,13.70
2017-08-19T23:58:09.106Z,13.50
